createdAt,value
2023-04-15T00:02:18.725Z,41.20
2023-04-15T00:04:47.780Z,41.51
2023-04-15T00:07:16.182Z,42.03
2023-04-15T00:09:44.728Z,41.73
2023-04-15T00:12:13.168Z,41.43
2023-04-15T00:14:40.747Z,41.34
2023-04-15T00:17:08.498Z,41.38
2023-04-15T00:19:36.790Z,41.45
2023-04-15T00:22:04.303Z,41.45
2023-04-15T00:24:32.693Z,41.65
2023-04-15T00:27:00.300Z,41.48
2023-04-15T00:29:31.536Z,41.85
2023-04-15T00:31:59.266Z,42.11
2023-04-15T00:34:27.859Z,42.03
2023-04-15T00:36:55.373Z,42.22
2023-04-15T00:39:23.131Z,42.16
2023-04-15T00:41:50.678Z,42.24
2023-04-15T00:44:18.922Z,42.40
2023-04-15T00:46:48.615Z,42.32
2023-04-15T00:49:17.524Z,42.27
2023-04-15T00:51:46.067Z,42.29
2023-04-15T00:54:14.020Z,42.75
2023-04-15T00:56:42.709Z,42.68
2023-04-15T00:59:10.642Z,43.03
2023-04-15T01:01:38.505Z,42.95
2023-04-15T01:04:06.937Z,43.15
2023-04-15T01:06:34.658Z,42.92
2023-04-15T01:09:03.293Z,42.98
2023-04-15T01:11:34.274Z,43.02
2023-04-15T01:14:02.640Z,43.22
2023-04-15T01:16:30.262Z,43.10
2023-04-15T01:18:58.104Z,42.79
2023-04-15T01:21:26.586Z,42.87
2023-04-15T01:23:56.915Z,42.83
2023-04-15T01:26:24.895Z,42.73
2023-04-15T01:28:52.421Z,43.26
2023-04-15T01:31:22.069Z,43.08
2023-04-15T01:33:49.650Z,43.17
2023-04-15T01:36:17.247Z,43.22
2023-04-15T01:38:44.778Z,43.28
2023-04-15T01:41:14.349Z,43.07
2023-04-15T01:43:42.372Z,43.08
2023-04-15T01:46:10.330Z,43.06
2023-04-15T01:48:37.849Z,43.05
2023-04-15T01:51:05.633Z,43.11
2023-04-15T01:53:34.183Z,43.15
2023-04-15T01:56:03.239Z,43.25
2023-04-15T01:58:31.305Z,43.13
2023-04-15T02:00:58.833Z,43.68
2023-04-15T02:03:26.521Z,43.78
2023-04-15T02:05:54.180Z,43.57
2023-04-15T02:08:22.449Z,43.75
2023-04-15T02:10:50.002Z,43.69
2023-04-15T02:13:17.536Z,43.65
2023-04-15T02:15:52.392Z,44.05
2023-04-15T02:18:20.558Z,43.56
2023-04-15T02:20:48.717Z,43.77
2023-04-15T02:23:16.780Z,43.88
2023-04-15T02:25:53.346Z,43.91
2023-04-15T02:28:22.514Z,43.75
2023-04-15T02:30:53.658Z,44.05
2023-04-15T02:33:21.811Z,44.04
2023-04-15T02:35:49.348Z,44.07
2023-04-15T02:38:17.896Z,44.16
2023-04-15T02:40:45.474Z,44.47
2023-04-15T02:43:13.625Z,44.50
2023-04-15T02:45:41.235Z,44.41
2023-04-15T02:48:09.132Z,44.64
2023-04-15T02:50:39.850Z,44.61
2023-04-15T02:53:08.304Z,44.72
2023-04-15T02:55:35.801Z,44.74
2023-04-15T02:58:03.529Z,44.92
2023-04-15T03:00:31.597Z,44.88
2023-04-15T03:03:06.719Z,44.79
2023-04-15T03:05:35.677Z,44.59
2023-04-15T03:08:05.229Z,44.49
2023-04-15T03:10:32.858Z,44.50
2023-04-15T03:13:02.467Z,44.57
2023-04-15T03:15:30.060Z,44.67
2023-04-15T03:17:57.746Z,44.82
2023-04-15T03:20:25.373Z,44.98
2023-04-15T03:22:53.049Z,44.65
2023-04-15T03:25:22.781Z,44.87
2023-04-15T03:27:50.287Z,44.94
2023-04-15T03:30:18.658Z,44.96
2023-04-15T03:32:46.642Z,44.83
2023-04-15T03:35:14.187Z,44.85
2023-04-15T03:37:41.987Z,45.00
2023-04-15T03:40:10.028Z,44.90
2023-04-15T03:42:37.585Z,45.24
2023-04-15T03:45:05.915Z,45.11
2023-04-15T03:47:33.601Z,45.34
2023-04-15T03:50:01.134Z,45.26
2023-04-15T03:52:28.618Z,45.36
2023-04-15T03:54:56.196Z,45.53
2023-04-15T03:57:24.013Z,45.55
2023-04-15T03:59:51.602Z,45.46
2023-04-15T04:02:19.260Z,45.38
2023-04-15T04:04:46.995Z,45.43
2023-04-15T04:07:18.344Z,45.71
2023-04-15T04:09:47.334Z,45.52
2023-04-15T04:12:15.541Z,45.37
2023-04-15T04:14:43.244Z,45.47
2023-04-15T04:17:10.991Z,45.51
2023-04-15T04:19:39.632Z,45.41
2023-04-15T04:22:07.184Z,45.57
2023-04-15T04:24:34.991Z,45.22
2023-04-15T04:27:03.260Z,45.34
2023-04-15T04:29:30.849Z,45.32
2023-04-15T04:31:58.317Z,45.49
2023-04-15T04:34:25.849Z,45.51
2023-04-15T04:36:53.408Z,45.29
2023-04-15T04:39:21.100Z,45.52
2023-04-15T04:41:48.833Z,45.23
2023-04-15T04:44:16.372Z,45.34
2023-04-15T04:46:44.403Z,45.47
2023-04-15T04:49:11.896Z,45.41
2023-04-15T04:51:39.467Z,45.86
2023-04-15T04:54:07.560Z,45.65
2023-04-15T04:56:35.047Z,45.81
2023-04-15T04:59:02.759Z,45.60
2023-04-15T05:01:34.117Z,45.71
2023-04-15T05:04:13.051Z,45.54
2023-04-15T05:06:40.705Z,45.62
2023-04-15T05:09:08.218Z,45.76
2023-04-15T05:11:35.929Z,45.73
2023-04-15T05:14:03.461Z,45.77
2023-04-15T05:16:30.932Z,45.63
2023-04-15T05:18:58.492Z,45.75
2023-04-15T05:21:26.190Z,46.00
2023-04-15T05:23:53.716Z,45.86
2023-04-15T05:26:22.023Z,45.66
2023-04-15T05:28:50.162Z,45.49
2023-04-15T05:31:17.755Z,45.67
2023-04-15T05:33:45.522Z,45.92
2023-04-15T05:36:13.285Z,46.21
2023-04-15T05:38:41.189Z,46.05
2023-04-15T05:41:09.103Z,45.95
2023-04-15T05:43:36.640Z,46.24
2023-04-15T05:46:04.225Z,46.14
2023-04-15T05:48:31.839Z,46.15
2023-04-15T05:50:59.338Z,46.24
2023-04-15T05:53:26.847Z,46.06
2023-04-15T05:55:54.304Z,46.29
2023-04-15T05:58:21.842Z,45.98
2023-04-15T06:00:49.382Z,46.22
2023-04-15T06:03:17.128Z,45.99
2023-04-15T06:05:44.959Z,46.22
2023-04-15T06:08:12.539Z,45.84
2023-04-15T06:10:40.209Z,45.71
2023-04-15T06:13:08.147Z,45.36
2023-04-15T06:15:35.941Z,45.48
2023-04-15T06:18:03.436Z,45.41
2023-04-15T06:20:31.024Z,44.89
2023-04-15T06:22:58.531Z,45.06
2023-04-15T06:25:26.128Z,44.64
2023-04-15T06:27:53.662Z,44.79
2023-04-15T06:30:22.942Z,44.63
2023-04-15T06:32:51.860Z,44.61
2023-04-15T06:35:19.438Z,44.61
2023-04-15T06:37:46.916Z,44.29
2023-04-15T06:40:14.567Z,44.39
2023-04-15T06:42:42.119Z,43.76
2023-04-15T06:45:10.361Z,44.22
2023-04-15T06:47:37.932Z,43.98
2023-04-15T06:50:06.571Z,44.25
2023-04-15T06:52:34.042Z,44.16
2023-04-15T06:55:02.663Z,43.88
2023-04-15T06:57:30.400Z,43.70
2023-04-15T06:59:57.880Z,44.19
2023-04-15T07:02:25.886Z,44.70
2023-04-15T07:04:53.507Z,44.90
2023-04-15T07:07:21.203Z,44.50
2023-04-15T07:09:48.723Z,44.11
2023-04-15T07:12:16.209Z,43.71
2023-04-15T07:14:43.755Z,44.09
2023-04-15T07:17:12.171Z,45.53
2023-04-15T07:19:39.709Z,45.96
2023-04-15T07:22:07.740Z,46.22
2023-04-15T07:24:35.514Z,45.92
2023-04-15T07:27:04.073Z,46.46
2023-04-15T07:29:31.623Z,46.27
2023-04-15T07:31:59.189Z,46.60
2023-04-15T07:34:26.720Z,46.27
2023-04-15T07:36:54.211Z,46.32
2023-04-15T07:39:22.264Z,46.32
2023-04-15T07:41:49.778Z,46.69
2023-04-15T07:44:17.299Z,46.51
2023-04-15T07:46:44.777Z,45.33
2023-04-15T07:49:13.356Z,44.81
2023-04-15T07:51:41.071Z,45.18
2023-04-15T07:54:08.875Z,44.73
2023-04-15T07:56:36.378Z,43.72
2023-04-15T07:59:04.764Z,43.25
2023-04-15T08:01:35.887Z,43.39
2023-04-15T08:04:03.773Z,43.29
2023-04-15T08:06:31.427Z,42.97
2023-04-15T08:08:58.961Z,42.43
2023-04-15T08:11:27.657Z,42.45
2023-04-15T08:13:55.344Z,42.60
2023-04-15T08:16:25.443Z,42.16
2023-04-15T08:18:55.048Z,42.01
2023-04-15T08:21:22.782Z,42.12
2023-04-15T08:23:52.810Z,41.61
2023-04-15T08:26:21.317Z,41.76
2023-04-15T08:28:49.592Z,41.47
2023-04-15T08:31:19.086Z,41.12
2023-04-15T08:33:46.956Z,41.18
2023-04-15T08:36:14.887Z,41.52
2023-04-15T08:38:42.402Z,41.50
2023-04-15T08:41:21.330Z,41.36
2023-04-15T08:44:04.104Z,41.58
2023-04-15T08:46:37.795Z,41.47
2023-04-15T08:49:07.066Z,41.22
2023-04-15T08:51:34.754Z,41.47
2023-04-15T08:54:03.897Z,41.15
2023-04-15T08:56:34.680Z,40.32
2023-04-15T08:59:02.823Z,40.03
2023-04-15T09:01:31.578Z,40.09
2023-04-15T09:04:00.030Z,39.95
2023-04-15T09:06:27.601Z,39.79
2023-04-15T09:08:55.322Z,39.87
2023-04-15T09:11:23.121Z,40.14
2023-04-15T09:13:51.522Z,39.66
2023-04-15T09:16:19.557Z,39.36
2023-04-15T09:18:47.104Z,39.43
2023-04-15T09:21:17.326Z,39.03
2023-04-15T09:24:00.518Z,39.29
2023-04-15T09:26:40.351Z,38.97
2023-04-15T09:29:13.463Z,39.35
2023-04-15T09:31:42.567Z,39.09
2023-04-15T09:34:10.414Z,39.03
2023-04-15T09:36:52.855Z,39.41
2023-04-15T09:39:21.360Z,39.36
2023-04-15T09:42:06.682Z,39.36
2023-04-15T09:44:34.228Z,38.95
2023-04-15T09:47:02.118Z,39.16
2023-04-15T09:49:29.838Z,38.76
2023-04-15T09:52:06.129Z,39.12
2023-04-15T09:54:38.875Z,38.34
2023-04-15T09:57:10.620Z,38.16
2023-04-15T09:59:38.391Z,38.03
2023-04-15T10:02:07.465Z,38.28
2023-04-15T10:04:38.615Z,38.52
2023-04-15T10:07:07.892Z,38.19
2023-04-15T10:09:38.026Z,38.34
2023-04-15T10:12:05.891Z,38.34
2023-04-15T10:14:38.470Z,38.06
2023-04-15T10:17:07.717Z,38.06
2023-04-15T10:19:37.740Z,37.73
2023-04-15T10:22:06.468Z,37.91
2023-04-15T10:24:34.687Z,37.32
2023-04-15T10:27:04.581Z,36.03
2023-04-15T10:29:32.957Z,35.61
2023-04-15T10:32:01.666Z,36.17
2023-04-15T10:34:29.859Z,34.80
2023-04-15T10:37:03.412Z,33.88
2023-04-15T10:39:34.166Z,33.92
2023-04-15T10:42:20.102Z,33.48
2023-04-15T10:44:56.419Z,33.89
2023-04-15T10:47:24.085Z,33.93
2023-04-15T10:50:02.294Z,34.58
2023-04-15T10:52:29.983Z,34.58
2023-04-15T10:55:21.795Z,34.35
2023-04-15T10:58:01.415Z,34.95
2023-04-15T11:00:31.989Z,35.14
2023-04-15T11:03:08.954Z,35.40
2023-04-15T11:05:42.490Z,35.21
2023-04-15T11:08:12.595Z,35.29
2023-04-15T11:10:39.957Z,35.03
2023-04-15T11:13:18.024Z,34.42
2023-04-15T11:15:47.778Z,34.53
2023-04-15T11:18:28.500Z,34.76
2023-04-15T11:20:59.484Z,35.00
2023-04-15T11:23:37.331Z,34.99
2023-04-15T11:26:12.317Z,34.65
2023-04-15T11:28:45.906Z,34.36
2023-04-15T11:31:19.880Z,34.40
2023-04-15T11:34:19.144Z,34.51
2023-04-15T11:36:47.380Z,34.41
2023-04-15T11:39:15.170Z,35.69
2023-04-15T11:41:45.896Z,35.40
2023-04-15T11:44:18.356Z,34.90
2023-04-15T11:46:46.060Z,34.94
2023-04-15T11:49:31.231Z,34.87
2023-04-15T11:51:58.793Z,34.31
2023-04-15T11:54:26.491Z,33.97
2023-04-15T11:56:54.603Z,33.14
2023-04-15T11:59:22.312Z,33.18
2023-04-15T12:01:52.317Z,34.02
2023-04-15T12:04:25.195Z,34.22
2023-04-15T12:06:53.255Z,32.71
2023-04-15T12:09:21.643Z,32.83
2023-04-15T12:11:57.246Z,32.79
2023-04-15T12:14:32.502Z,34.63
2023-04-15T12:17:02.879Z,34.75
2023-04-15T12:19:34.958Z,35.11
2023-04-15T12:22:07.196Z,35.09
2023-04-15T12:24:36.962Z,35.10
2023-04-15T12:27:07.254Z,35.43
2023-04-15T12:29:37.038Z,34.89
2023-04-15T12:32:10.418Z,34.82
2023-04-15T12:34:52.311Z,34.56
2023-04-15T12:37:20.160Z,34.55
2023-04-15T12:39:50.070Z,34.54
2023-04-15T12:42:18.799Z,35.16
2023-04-15T12:44:46.882Z,34.85
2023-04-15T12:47:14.570Z,34.83
2023-04-15T12:49:42.176Z,35.21
2023-04-15T12:52:09.742Z,35.61
2023-04-15T12:54:37.515Z,35.10
2023-04-15T12:57:07.207Z,34.71
2023-04-15T12:59:36.085Z,34.04
2023-04-15T13:02:04.332Z,34.21
2023-04-15T13:04:32.119Z,33.76
2023-04-15T13:06:59.874Z,33.75
2023-04-15T13:09:27.393Z,33.56
2023-04-15T13:11:56.036Z,33.27
2023-04-15T13:14:23.584Z,33.65
2023-04-15T13:16:51.144Z,33.43
2023-04-15T13:19:18.650Z,33.49
2023-04-15T13:21:46.372Z,33.38
2023-04-15T13:24:13.995Z,33.69
2023-04-15T13:26:41.925Z,33.17
2023-04-15T13:29:09.838Z,33.37
2023-04-15T13:31:37.565Z,33.44
2023-04-15T13:34:05.513Z,32.77
2023-04-15T13:36:33.312Z,32.69
2023-04-15T13:39:01.057Z,32.30
2023-04-15T13:41:28.681Z,32.39
2023-04-15T13:43:56.596Z,32.63
2023-04-15T13:46:25.659Z,31.96
2023-04-15T13:48:53.591Z,30.42
2023-04-15T13:51:21.189Z,29.15
2023-04-15T13:53:48.823Z,28.78
2023-04-15T13:56:18.643Z,29.36
2023-04-15T13:58:46.205Z,29.90
2023-04-15T14:01:13.889Z,29.63
2023-04-15T14:03:41.719Z,29.38
2023-04-15T14:06:09.510Z,29.84
2023-04-15T14:08:37.288Z,29.83
2023-04-15T14:11:06.622Z,30.13
2023-04-15T14:13:34.265Z,30.26
2023-04-15T14:16:01.985Z,30.47
2023-04-15T14:18:33.440Z,30.51
2023-04-15T14:21:06.339Z,31.11
2023-04-15T14:23:34.003Z,31.19
2023-04-15T14:26:01.763Z,31.06
2023-04-15T14:28:29.759Z,31.25
2023-04-15T14:30:57.554Z,31.65
2023-04-15T14:33:25.245Z,31.70
2023-04-15T14:35:52.987Z,32.03
2023-04-15T14:38:22.428Z,32.03
2023-04-15T14:40:50.222Z,32.66
2023-04-15T14:43:17.760Z,32.56
2023-04-15T14:45:45.695Z,32.85
2023-04-15T14:48:13.753Z,33.37
2023-04-15T14:50:41.502Z,34.30
2023-04-15T14:53:09.420Z,35.44
2023-04-15T14:55:37.021Z,35.65
2023-04-15T14:58:04.697Z,36.30
2023-04-15T15:00:32.400Z,36.54
2023-04-15T15:03:00.219Z,36.25
2023-04-15T15:05:28.085Z,36.08
2023-04-15T15:07:55.690Z,35.38
2023-04-15T15:10:32.902Z,35.21
2023-04-15T15:13:11.034Z,35.10
2023-04-15T15:15:39.114Z,35.18
2023-04-15T15:18:06.883Z,35.33
2023-04-15T15:20:35.356Z,35.33
2023-04-15T15:23:03.079Z,36.03
2023-04-15T15:25:30.678Z,35.57
2023-04-15T15:27:58.376Z,35.08
2023-04-15T15:30:26.221Z,35.18
2023-04-15T15:32:53.832Z,35.23
2023-04-15T15:35:22.901Z,34.91
2023-04-15T15:37:50.458Z,34.88
2023-04-15T15:40:18.048Z,34.80
2023-04-15T15:42:47.227Z,34.50
2023-04-15T15:45:14.760Z,34.33
2023-04-15T15:47:43.107Z,34.27
2023-04-15T15:50:10.941Z,34.24
2023-04-15T15:52:38.560Z,34.21
2023-04-15T15:55:06.988Z,34.43
2023-04-15T15:57:34.471Z,34.93
2023-04-15T16:02:59.933Z,36.65
2023-04-15T16:05:20.270Z,36.68
2023-04-15T16:07:47.874Z,37.31
2023-04-15T16:10:15.950Z,39.08
2023-04-15T16:12:44.030Z,39.29
2023-04-15T16:15:12.765Z,39.42
2023-04-15T16:17:40.620Z,39.58
2023-04-15T16:20:08.762Z,40.86
2023-04-15T16:22:36.418Z,40.81
2023-04-15T16:25:04.238Z,42.15
2023-04-15T16:27:32.215Z,42.52
2023-04-15T16:29:59.773Z,43.09
2023-04-15T16:32:27.352Z,42.65
2023-04-15T16:34:55.284Z,43.69
2023-04-15T16:37:22.760Z,44.61
2023-04-15T16:39:50.386Z,45.18
2023-04-15T16:42:17.954Z,45.71
2023-04-15T16:44:45.498Z,46.32
2023-04-15T16:47:13.015Z,49.80
2023-04-15T16:49:40.500Z,49.34
2023-04-15T16:52:08.126Z,48.91
2023-04-15T16:54:40.460Z,49.91
2023-04-15T16:57:08.794Z,50.74
2023-04-15T16:59:36.318Z,50.99
2023-04-15T17:02:03.929Z,50.26
2023-04-15T17:04:31.690Z,51.14
2023-04-15T17:06:59.232Z,50.90
2023-04-15T17:09:26.972Z,51.43
2023-04-15T17:11:54.543Z,51.22
2023-04-15T17:14:22.037Z,51.97
2023-04-15T17:16:49.592Z,51.67
2023-04-15T17:19:17.099Z,51.85
2023-04-15T17:21:44.579Z,52.21
2023-04-15T17:24:12.090Z,52.05
2023-04-15T17:26:39.637Z,52.35
2023-04-15T17:29:07.294Z,52.96
2023-04-15T17:31:35.029Z,52.89
2023-04-15T17:34:09.407Z,53.07
2023-04-15T17:36:37.857Z,53.88
2023-04-15T17:39:05.585Z,53.70
2023-04-15T17:41:33.244Z,53.99
2023-04-15T17:44:00.889Z,54.51
2023-04-15T17:46:28.476Z,56.39
2023-04-15T17:48:55.999Z,56.34
2023-04-15T17:51:23.540Z,57.19
2023-04-15T17:54:07.389Z,57.86
2023-04-15T17:56:35.057Z,57.15
2023-04-15T17:59:03.358Z,56.74
2023-04-15T18:01:30.941Z,59.29
2023-04-15T18:03:58.603Z,59.11
2023-04-15T18:06:27.096Z,59.39
2023-04-15T18:08:54.719Z,58.96
2023-04-15T18:11:22.182Z,60.10
2023-04-15T18:13:49.698Z,59.70
2023-04-15T18:16:17.350Z,59.50
2023-04-15T18:18:44.930Z,58.37
2023-04-15T18:21:13.863Z,59.19
2023-04-15T18:23:41.566Z,59.99
2023-04-15T18:26:09.157Z,59.84
2023-04-15T18:28:38.610Z,60.94
2023-04-15T18:31:06.609Z,61.38
2023-04-15T18:33:35.707Z,60.86
2023-04-15T18:36:03.560Z,60.61
2023-04-15T18:38:31.649Z,61.57
2023-04-15T18:40:59.146Z,61.92
2023-04-15T18:43:26.672Z,62.29
2023-04-15T18:45:54.924Z,61.14
2023-04-15T18:48:22.617Z,60.63
2023-04-15T18:50:53.839Z,61.22
2023-04-15T18:53:21.659Z,61.60
2023-04-15T18:55:49.243Z,62.14
2023-04-15T18:58:17.150Z,62.20
2023-04-15T19:00:44.768Z,61.38
2023-04-15T19:03:12.339Z,62.68
2023-04-15T19:05:40.255Z,62.14
2023-04-15T19:08:07.776Z,63.07
2023-04-15T19:10:35.530Z,61.78
2023-04-15T19:13:04.497Z,62.60
2023-04-15T19:15:32.336Z,61.96
2023-04-15T19:17:59.878Z,63.37
2023-04-15T19:20:27.520Z,62.99
2023-04-15T19:22:55.074Z,63.05
2023-04-15T19:25:22.630Z,63.63
2023-04-15T19:27:50.237Z,64.80
2023-04-15T19:30:17.759Z,64.11
2023-04-15T19:32:45.289Z,63.54
2023-04-15T19:35:12.928Z,63.63
2023-04-15T19:37:40.609Z,63.46
2023-04-15T19:40:09.493Z,63.33
2023-04-15T19:42:36.985Z,63.17
2023-04-15T19:45:05.054Z,63.54
2023-04-15T19:47:34.154Z,62.81
2023-04-15T19:50:01.757Z,62.06
2023-04-15T19:52:29.263Z,62.01
2023-04-15T19:54:56.825Z,63.03
2023-04-15T19:57:24.362Z,63.68
2023-04-15T19:59:51.901Z,63.64
2023-04-15T20:02:19.551Z,62.69
2023-04-15T20:04:47.234Z,62.63
2023-04-15T20:07:14.819Z,62.60
2023-04-15T20:09:44.034Z,64.46
2023-04-15T20:12:51.689Z,63.69
2023-04-15T20:14:59.058Z,62.45
2023-04-15T20:17:26.567Z,63.25
2023-04-15T20:19:54.117Z,62.33
2023-04-15T20:22:21.607Z,61.95
2023-04-15T20:24:49.104Z,62.43
2023-04-15T20:27:17.048Z,62.49
2023-04-15T20:29:44.567Z,62.11
2023-04-15T20:32:12.337Z,62.30
2023-04-15T20:34:42.604Z,63.45
2023-04-15T20:37:11.924Z,63.83
2023-04-15T20:39:40.696Z,62.88
2023-04-15T20:42:10.425Z,62.77
2023-04-15T20:44:40.998Z,63.94
2023-04-15T20:47:08.717Z,65.84
2023-04-15T20:49:37.947Z,64.92
2023-04-15T20:52:07.930Z,64.19
2023-04-15T20:54:35.613Z,64.61
2023-04-15T20:57:03.199Z,63.99
2023-04-15T20:59:32.016Z,63.38
2023-04-15T21:01:59.588Z,63.55
2023-04-15T21:04:27.262Z,63.16
2023-04-15T21:06:54.769Z,63.73
2023-04-15T21:09:22.260Z,63.96
2023-04-15T21:11:59.707Z,64.11
2023-04-15T21:14:27.787Z,63.88
2023-04-15T21:16:57.515Z,65.89
2023-04-15T21:19:25.101Z,64.19
2023-04-15T21:21:52.716Z,64.75
2023-04-15T21:24:20.265Z,63.38
2023-04-15T21:26:47.907Z,63.61
2023-04-15T21:29:15.529Z,63.76
2023-04-15T21:31:43.030Z,64.03
2023-04-15T21:34:11.400Z,64.78
2023-04-15T21:36:39.088Z,63.93
2023-04-15T21:39:06.830Z,63.78
2023-04-15T21:41:36.760Z,63.10
2023-04-15T21:44:04.539Z,63.79
2023-04-15T21:46:33.281Z,63.50
2023-04-15T21:49:03.373Z,63.12
2023-04-15T21:51:31.454Z,62.90
2023-04-15T21:53:59.533Z,63.59
2023-04-15T21:56:27.187Z,63.01
2023-04-15T21:58:57.190Z,63.08
2023-04-15T22:01:26.192Z,64.45
2023-04-15T22:03:54.084Z,64.70
2023-04-15T22:06:21.833Z,64.48
2023-04-15T22:09:11.293Z,64.48
2023-04-15T22:11:37.683Z,64.98
2023-04-15T22:14:05.756Z,64.67
2023-04-15T22:16:33.349Z,65.15
2023-04-15T22:19:02.477Z,64.70
2023-04-15T22:21:29.947Z,65.35
2023-04-15T22:24:32.534Z,65.12
2023-04-15T22:26:45.105Z,64.66
2023-04-15T22:29:12.692Z,65.34
2023-04-15T22:31:40.445Z,64.47
2023-04-15T22:34:08.582Z,64.76
2023-04-15T22:36:36.077Z,64.86
2023-04-15T22:39:04.007Z,64.19
2023-04-15T22:41:31.721Z,64.37
2023-04-15T22:43:59.257Z,64.97
2023-04-15T22:46:26.745Z,65.92
2023-04-15T22:48:54.280Z,64.86
2023-04-15T22:51:23.323Z,66.18
2023-04-15T22:53:50.916Z,66.56
2023-04-15T22:56:20.993Z,65.55
2023-04-15T22:58:49.585Z,65.75
2023-04-15T23:01:17.805Z,67.13
2023-04-15T23:03:56.286Z,67.61
2023-04-15T23:06:29.462Z,67.72
2023-04-15T23:08:56.947Z,67.86
2023-04-15T23:11:24.457Z,67.68
2023-04-15T23:13:52.957Z,68.39
2023-04-15T23:16:20.538Z,68.27
2023-04-15T23:18:48.056Z,67.55
2023-04-15T23:21:15.632Z,67.35
2023-04-15T23:23:43.233Z,66.39
2023-04-15T23:26:10.701Z,67.37
2023-04-15T23:28:38.184Z,67.41
2023-04-15T23:31:06.730Z,67.45
2023-04-15T23:33:34.218Z,66.18
2023-04-15T23:36:01.866Z,66.60
2023-04-15T23:38:29.432Z,67.18
2023-04-15T23:40:56.901Z,65.95
2023-04-15T23:43:24.406Z,65.26
2023-04-15T23:45:52.016Z,65.75
2023-04-15T23:48:19.545Z,65.07
2023-04-15T23:50:47.041Z,66.86
2023-04-15T23:53:14.529Z,66.04
2023-04-15T23:55:42.014Z,65.99
2023-04-15T23:58:09.912Z,66.17
